首页
METAR-TAF:

METAR-TAF

机场 :

Tulita, 西北特區, 加拿大

纬度: 64-55N, 经度: 125-34W, 海拔: 98米

当前天气观测

该预报发布于11小时和6分钟前的00:00 UTC
风速11节,风向北转东北
温度 -19°C
湿度 70%
气压 1014 hPa
能見度: 24.1公里
少量云层高于2500英尺
多云层高于22000英尺

METAR: CZFN 270000Z 03011KT 15SM FEW025 BKN220 M19/M23 A2994 RMK SC1CI6 S0 AFT 1600/59/SNW CVR/HARD PACK/LAST STFD OBS/NEXT 271600 SLP156

时间: 04:06 (11:06 UTC)


TAF: 丢失

超过4000个机场的气象观测和天气预报(METAR&TAF报告)。

可查询的气象台以黄色和红色小点在地图上表示。

将鼠标移到小点上方,可查看气象台名称。

然后点击查看天气观测和预报。

如需切换地图:点击带黑十字的绿色按钮放大地图;点击带横线的绿色按钮缩小地图;或者点击绿色箭头查看邻近地区的地图。


METAR-TAF: